Overview Statistics Trail Chart Weather Telemetry Raw packets
 

This is the latest recevied weather packets stored in our database for station/object M0TUM-1. If no packets are shown the sender has not sent any weather packets the latest 10 day(s).

<< 109 110 111 112 113 114 >>
Time Temp. Humidity Pressure Rain* Wind** Luminosity Snow
1787738437 22.78° C 62% 1015 hPa 0 mm - 638 W/m² -
1787738136 22.78° C 61% 1014.9 hPa 0 mm - 608 W/m² -
1787737832 22.78° C 62% 1014.8 hPa 0 mm - 623 W/m² -
1787737527 22.78° C 63% 1015 hPa 0 mm - 252 W/m² -
1787737221 23.33° C 60% 1014.9 hPa 0 mm - 314 W/m² -
1787736917 23.33° C 59% 1014.9 hPa 0 mm - 608 W/m² -
1787736613 22.78° C 62% 1015.1 hPa 0 mm - 587 W/m² -
1787736308 22.78° C 61% 1015.2 hPa 0 mm - 187 W/m² -
1787736006 22.78° C 62% 1015.2 hPa 0 mm - 576 W/m² -
1787735700 22.78° C 63% 1015 hPa 0 mm - 178 W/m² -
1787735396 22.78° C 64% 1015.2 hPa 0 mm - 559 W/m² -
1787735095 22.22° C 65% 1015 hPa 0 mm - 406 W/m² -
1787734790 22.22° C 67% 1015 hPa 0 mm - 482 W/m² -
1787734484 22.22° C 66% 1015.1 hPa 0 mm - 412 W/m² -
1787734180 21.67° C 68% 1015.1 hPa 0 mm - 432 W/m² -
1787733879 21.67° C 68% 1014.9 hPa 0 mm - 386 W/m² -
1787733574 21.67° C 69% 1015 hPa 0 mm - 346 W/m² -
1787733270 21.11° C 71% 1014.9 hPa 0 mm - 253 W/m² -
1787732966 21.11° C 71% 1015 hPa 0 mm - 282 W/m² -
1787732661 21.11° C 70% 1015.1 hPa 0 mm - 268 W/m² -
1787732356 21.67° C 72% 1015.1 hPa 0 mm - 205 W/m² -
1787732055 21.11° C 74% 1015 hPa 0 mm - 160 W/m² -
1787731755 20.56° C 74% 1014.9 hPa 0 mm - 131 W/m² -
1787731452 20.56° C 75% 1014.6 hPa 0 mm - 326 W/m² -
1787731148 20° C 78% 1014.8 hPa 0 mm - 313 W/m² -

* Rain latest hour (hover to see other rain measurements)
** Current wind speed in m/s (hover to see current wind gust speed)